createdAt,value
2023-03-05T00:00:26.974Z,95728.38
2023-03-05T00:02:58.591Z,95726.25
2023-03-05T00:05:30.192Z,95731.50
2023-03-05T00:08:01.785Z,95728.00
2023-03-05T00:10:33.316Z,95723.63
2023-03-05T00:13:04.850Z,95723.16
2023-03-05T00:15:41.212Z,95717.13
2023-03-05T00:18:12.839Z,95715.38
2023-03-05T00:20:46.346Z,95713.72
2023-03-05T00:23:17.845Z,95710.81
2023-03-05T00:25:49.586Z,95713.31
2023-03-05T00:28:21.273Z,95713.22
2023-03-05T00:30:52.761Z,95705.75
2023-03-05T00:33:24.272Z,95701.38
2023-03-05T00:35:55.716Z,95700.19
2023-03-05T00:38:27.212Z,95698.25
2023-03-05T00:40:58.646Z,95697.88
2023-03-05T00:43:30.746Z,95697.47
2023-03-05T00:46:02.460Z,95691.84
2023-03-05T00:48:34.284Z,95690.13
2023-03-05T00:51:05.971Z,95688.66
2023-03-05T00:53:37.626Z,95691.28
2023-03-05T00:56:09.201Z,95690.88
2023-03-05T00:58:40.697Z,95682.34
2023-03-05T01:01:12.524Z,95674.19
2023-03-05T01:03:44.068Z,95672.75
2023-03-05T01:06:19.304Z,95668.00
2023-03-05T01:08:51.035Z,95665.75
2023-03-05T01:11:22.751Z,95663.78
2023-03-05T01:13:54.316Z,95659.63
2023-03-05T01:16:26.014Z,95661.78
2023-03-05T01:18:57.586Z,95658.06
2023-03-05T01:21:29.077Z,95661.66
2023-03-05T01:24:00.706Z,95663.81
2023-03-05T01:26:32.550Z,95657.28
2023-03-05T01:29:04.687Z,95635.81
2023-03-05T01:31:36.253Z,95649.41
2023-03-05T01:34:07.892Z,95651.25
2023-03-05T01:36:41.913Z,95635.91
2023-03-05T01:39:13.725Z,95641.31
2023-03-05T01:41:45.225Z,95638.22
2023-03-05T01:44:26.087Z,95639.00
2023-03-05T01:46:57.818Z,95635.50
2023-03-05T01:49:40.678Z,95634.31
2023-03-05T01:52:18.046Z,95629.28
2023-03-05T01:55:04.623Z,95625.50
2023-03-05T01:57:40.630Z,95626.94
2023-03-05T02:00:17.380Z,95623.47
2023-03-05T02:02:51.277Z,95621.78
2023-03-05T02:05:27.139Z,95623.34
2023-03-05T02:08:00.981Z,95634.31
2023-03-05T02:10:48.016Z,95625.03
2023-03-05T02:13:24.381Z,95616.25
2023-03-05T02:15:59.153Z,95619.91
2023-03-05T02:18:30.724Z,95619.69
2023-03-05T02:21:06.692Z,95614.16
2023-03-05T02:23:38.795Z,95603.59
2023-03-05T02:26:10.854Z,95606.09
2023-03-05T02:28:52.028Z,95603.03
2023-03-05T02:31:25.499Z,95608.53
2023-03-05T02:33:57.241Z,95605.97
2023-03-05T02:36:29.082Z,95605.97
2023-03-05T02:39:00.825Z,95595.41
2023-03-05T02:41:32.386Z,95582.94
2023-03-05T02:44:04.078Z,95586.25
2023-03-05T02:46:35.644Z,95582.31
2023-03-05T02:49:07.128Z,95582.38
2023-03-05T02:51:38.610Z,95580.34
2023-03-05T02:54:10.166Z,95560.03
2023-03-05T02:56:43.418Z,95564.72
2023-03-05T02:59:14.948Z,95565.63
2023-03-05T03:01:46.396Z,95563.53
2023-03-05T03:04:17.823Z,95556.16
2023-03-05T03:06:49.345Z,95554.59
2023-03-05T03:09:21.386Z,95552.69
2023-03-05T03:11:53.300Z,95557.97
2023-03-05T03:14:24.886Z,95549.38
2023-03-05T03:16:56.627Z,95539.19
2023-03-05T03:19:28.138Z,95543.88
2023-03-05T03:21:59.772Z,95542.03
2023-03-05T03:24:32.324Z,95536.66
2023-03-05T03:27:04.438Z,95538.97
2023-03-05T03:29:38.194Z,95538.50
2023-03-05T03:32:09.752Z,95541.91
2023-03-05T03:34:41.538Z,95528.00
2023-03-05T03:37:13.285Z,95531.31
2023-03-05T03:39:44.769Z,95528.84
2023-03-05T03:42:20.640Z,95533.78
2023-03-05T03:44:52.503Z,95529.06
2023-03-05T03:47:24.062Z,95532.31
2023-03-05T03:49:55.620Z,95536.47
2023-03-05T03:52:27.556Z,95532.50
2023-03-05T03:55:01.717Z,95526.28
2023-03-05T03:57:33.560Z,95526.19
2023-03-05T04:00:10.973Z,95524.50
2023-03-05T04:02:42.578Z,95519.03
2023-03-05T04:05:14.202Z,95520.16
2023-03-05T04:07:45.755Z,95524.44
2023-03-05T04:10:17.794Z,95511.81
2023-03-05T04:12:49.382Z,95519.09
2023-03-05T04:15:21.554Z,95510.44
2023-03-05T04:17:53.052Z,95514.78
2023-03-05T04:20:24.773Z,95508.06
2023-03-05T04:22:56.380Z,95495.91
2023-03-05T04:25:27.935Z,95501.72
2023-03-05T04:27:59.461Z,95496.06
2023-03-05T04:30:31.397Z,95502.84
2023-03-05T04:33:03.034Z,95494.25
2023-03-05T04:35:34.574Z,95499.22
2023-03-05T04:38:06.225Z,95489.69
2023-03-05T04:40:38.130Z,95493.53
2023-03-05T04:43:09.656Z,95486.44
2023-03-05T04:45:42.872Z,95486.75
2023-03-05T04:48:14.436Z,95479.19
2023-03-05T04:50:45.948Z,95482.72
2023-03-05T04:53:17.475Z,95485.06
2023-03-05T04:55:55.606Z,95485.50
2023-03-05T04:58:27.894Z,95478.09
2023-03-05T05:01:04.431Z,95480.41
2023-03-05T05:03:35.973Z,95477.19
2023-03-05T05:06:07.546Z,95473.66
2023-03-05T05:08:39.069Z,95469.34
2023-03-05T05:11:14.045Z,95471.34
2023-03-05T05:13:45.686Z,95472.13
2023-03-05T05:16:17.273Z,95465.63
2023-03-05T05:18:48.892Z,95465.50
2023-03-05T05:21:20.439Z,95457.94
2023-03-05T05:23:51.999Z,95457.63
2023-03-05T05:26:23.572Z,95462.78
2023-03-05T05:28:55.136Z,95470.34
2023-03-05T05:31:26.702Z,95469.72
2023-03-05T05:33:58.309Z,95463.97
2023-03-05T05:36:30.141Z,95462.00
2023-03-05T05:39:01.668Z,95464.91
2023-03-05T05:41:33.074Z,95463.53
2023-03-05T05:44:04.789Z,95468.47
2023-03-05T05:46:36.413Z,95473.28
2023-03-05T05:49:08.001Z,95473.75
2023-03-05T05:51:39.494Z,95470.50
2023-03-05T05:54:14.837Z,95472.53
2023-03-05T05:56:46.315Z,95473.78
2023-03-05T05:59:17.823Z,95472.38
2023-03-05T06:01:49.393Z,95465.75
2023-03-05T06:04:20.950Z,95474.56
2023-03-05T06:06:52.374Z,95474.72
2023-03-05T06:09:23.868Z,95472.41
2023-03-05T06:11:55.358Z,95473.19
2023-03-05T06:14:26.947Z,95469.00
2023-03-05T06:16:58.502Z,95471.03
2023-03-05T06:19:30.061Z,95460.81
2023-03-05T06:22:01.845Z,95465.47
2023-03-05T06:24:33.349Z,95463.63
2023-03-05T06:27:05.872Z,95469.63
2023-03-05T06:29:37.388Z,95459.28
2023-03-05T06:32:10.180Z,95460.69
2023-03-05T06:34:41.752Z,95467.81
2023-03-05T06:37:13.251Z,95464.44
2023-03-05T06:39:44.750Z,95463.34
2023-03-05T06:42:18.519Z,95464.56
2023-03-05T06:44:50.064Z,95458.84
2023-03-05T06:47:21.648Z,95463.50
2023-03-05T16:18:13.962Z,95029.84
2023-03-05T16:20:45.690Z,95028.06
2023-03-05T17:37:21.079Z,94994.94
2023-03-05T17:39:53.009Z,94992.56
2023-03-05T17:42:24.548Z,94992.56
2023-03-05T17:45:02.060Z,94986.00
2023-03-05T17:47:35.295Z,94986.25
2023-03-05T17:50:08.226Z,94988.38
2023-03-05T17:52:41.236Z,94991.88
2023-03-05T17:55:15.785Z,94982.34
2023-03-05T17:57:48.274Z,94991.59
2023-03-05T18:00:24.217Z,94988.28
2023-03-05T18:02:57.642Z,94984.34
2023-03-05T18:05:30.162Z,94983.25
2023-03-05T18:08:03.750Z,94979.19
2023-03-05T18:10:35.423Z,94979.28
2023-03-05T18:13:07.343Z,94979.00
2023-03-05T18:15:41.757Z,94980.84
2023-03-05T18:18:18.005Z,94977.56
2023-03-05T18:20:49.837Z,94980.19
2023-03-05T18:23:21.591Z,94970.41
2023-03-05T18:25:55.501Z,94979.09
2023-03-05T18:28:28.007Z,94977.22
2023-03-05T18:30:59.735Z,94974.59
2023-03-05T18:33:32.904Z,94971.97
2023-03-05T18:36:05.332Z,94960.41
2023-03-05T18:38:38.375Z,94962.84
2023-03-05T18:41:19.585Z,94957.25
2023-03-05T18:43:51.470Z,94964.72
2023-03-05T18:46:23.270Z,94962.84
2023-03-05T18:48:55.005Z,94955.72
2023-03-05T18:51:28.390Z,94950.44
2023-03-05T18:53:59.960Z,94956.47
2023-03-05T18:57:49.180Z,94950.53
2023-03-05T19:00:31.979Z,94946.38
2023-03-05T19:03:05.803Z,94950.88
2023-03-05T19:05:40.325Z,94946.38
2023-03-05T19:08:14.682Z,94947.16
2023-03-05T19:10:46.929Z,94949.00
2023-03-05T19:13:34.534Z,94946.81
2023-03-05T19:16:13.513Z,94950.13
2023-03-05T19:19:18.035Z,94945.63
2023-03-05T19:21:55.046Z,94938.13
2023-03-05T19:24:30.604Z,94942.31
2023-03-05T19:27:10.075Z,94935.84
2023-03-05T19:29:42.923Z,94947.16
2023-03-05T19:32:19.005Z,94938.47
2023-03-05T19:34:54.206Z,94940.34
2023-03-05T19:37:26.466Z,94934.97
2023-03-05T19:39:58.037Z,94938.25
2023-03-05T19:42:30.213Z,94931.44
2023-03-05T19:45:13.613Z,94934.41
2023-03-05T19:47:49.237Z,94930.59
2023-03-05T19:50:20.795Z,94924.97
2023-03-05T19:52:53.350Z,94925.75
2023-03-05T19:55:25.326Z,94929.16
2023-03-05T19:57:57.421Z,94931.34
2023-03-05T20:00:39.386Z,94925.66
2023-03-05T20:03:11.863Z,94923.78
2023-03-05T20:05:46.373Z,94927.47
2023-03-05T20:08:19.297Z,94925.66
2023-03-05T20:10:51.158Z,94920.03
2023-03-05T20:13:30.434Z,94921.44
2023-03-05T20:16:02.100Z,94917.28
2023-03-05T20:18:33.857Z,94910.63
2023-03-05T20:21:06.325Z,94908.63
2023-03-05T20:23:38.016Z,94911.25
2023-03-05T20:26:10.910Z,94905.97
2023-03-05T20:28:42.678Z,94906.75
2023-03-05T20:31:18.853Z,94912.34
2023-03-05T20:33:50.642Z,94910.81
2023-03-05T20:36:23.372Z,94907.50
2023-03-05T20:38:56.324Z,94908.50
2023-03-05T20:41:28.546Z,94898.94
2023-03-05T20:44:01.195Z,94904.88
2023-03-05T20:46:39.866Z,94908.84
2023-03-05T20:49:12.422Z,94899.09
2023-03-05T20:51:47.440Z,94894.25
2023-03-05T20:54:22.359Z,94898.94
2023-03-05T20:56:56.003Z,94894.44
2023-03-05T20:59:28.550Z,94890.09
2023-03-05T21:02:04.137Z,94885.91
2023-03-05T21:04:35.710Z,94888.66
2023-03-05T21:07:07.578Z,94887.66
2023-03-05T21:09:39.739Z,94891.06
2023-03-05T21:12:11.401Z,94889.19
2023-03-05T21:14:45.514Z,94882.72
2023-03-05T21:17:18.351Z,94885.00
2023-03-05T21:19:51.656Z,94881.41
2023-03-05T21:22:23.159Z,94877.09
2023-03-05T21:25:03.658Z,94876.47
2023-03-05T21:27:35.165Z,94869.09
2023-03-05T21:30:07.215Z,94864.31
2023-03-05T21:32:39.089Z,94866.25
2023-03-05T21:35:16.207Z,94855.63
2023-03-05T21:37:52.597Z,94851.13
2023-03-05T21:40:24.948Z,94851.56
2023-03-05T21:42:56.625Z,94845.88
2023-03-05T21:45:30.772Z,94841.03
2023-03-05T21:48:02.688Z,94841.47
2023-03-05T21:50:34.817Z,94836.97
2023-03-05T21:53:06.718Z,94838.41
2023-03-05T21:56:07.965Z,94834.56
2023-03-05T21:58:39.592Z,94832.59
2023-03-05T22:01:12.392Z,94837.94
2023-03-05T22:03:44.291Z,94829.19
2023-03-05T22:06:18.028Z,94828.00
2023-03-05T22:08:49.668Z,94828.44
2023-03-05T22:11:22.366Z,94821.50
2023-03-05T22:13:54.132Z,94815.38
2023-03-05T22:16:27.679Z,94815.38
2023-03-05T22:18:59.563Z,94816.47
2023-03-05T22:21:32.208Z,94808.25
2023-03-05T22:24:03.896Z,94812.75
2023-03-05T22:26:38.510Z,94811.97
2023-03-05T22:29:11.646Z,94811.09
2023-03-05T22:31:44.294Z,94817.91
2023-03-05T22:34:16.081Z,94819.53
2023-03-05T22:36:47.642Z,94807.47
2023-03-05T22:39:19.189Z,94806.03
2023-03-05T22:41:50.657Z,94801.56
2023-03-05T22:44:24.933Z,94804.97
2023-03-05T22:46:56.792Z,94804.75
2023-03-05T22:49:28.297Z,94798.72
2023-03-05T22:51:59.891Z,94806.47
2023-03-05T22:54:31.367Z,94805.38
2023-03-05T22:57:02.935Z,94798.13
2023-03-05T22:59:34.429Z,94794.28
2023-03-05T23:02:06.046Z,94791.09
2023-03-05T23:04:53.512Z,94779.28
2023-03-05T23:07:28.410Z,94773.69
2023-03-05T23:10:08.189Z,94780.72
2023-03-05T23:12:44.529Z,94772.63
2023-03-05T23:15:23.265Z,94779.41
2023-03-05T23:17:54.881Z,94774.69
2023-03-05T23:20:32.679Z,94772.81
2023-03-05T23:23:04.824Z,94771.50
2023-03-05T23:25:36.676Z,94766.69
2023-03-05T23:28:08.250Z,94771.63
2023-03-05T23:30:39.769Z,94768.53
2023-03-05T23:33:16.229Z,94777.22
2023-03-05T23:35:54.360Z,94761.41
2023-03-05T23:38:28.315Z,94763.28
2023-03-05T23:41:03.592Z,94765.59
2023-03-05T23:43:35.497Z,94761.09
2023-03-05T23:46:10.764Z,94754.72
2023-03-05T23:51:30.869Z,94751.03
2023-03-05T23:54:02.333Z,94743.44
2023-03-05T23:56:33.762Z,94744.66
2023-03-05T23:59:05.250Z,94747.59
